createdAt,value
2018-11-20T00:02:54.650Z,99540.93
2018-11-20T00:09:09.948Z,99532.04
2018-11-20T00:12:17.330Z,99532.45
2018-11-20T00:24:25.749Z,99526.22
2018-11-20T00:30:33.119Z,99522.06
2018-11-20T00:36:48.601Z,99519.50
2018-11-20T00:39:57.783Z,99517.38
2018-11-20T00:43:06.783Z,99521.53
2018-11-20T00:45:58.057Z,99529.56
2018-11-20T00:48:47.610Z,99525.50
2018-11-20T00:51:55.786Z,99538.86
2018-11-20T00:58:17.078Z,99528.70
2018-11-20T01:07:28.275Z,99526.63
2018-11-20T01:13:19.402Z,99524.06
2018-11-20T01:16:27.209Z,99512.27
2018-11-20T01:19:36.336Z,99514.89
2018-11-20T01:31:48.023Z,99499.64
2018-11-20T01:38:03.358Z,99492.55
2018-11-20T01:41:11.190Z,99495.00
2018-11-20T01:47:14.179Z,99484.20
2018-11-20T01:50:25.492Z,99476.25
2018-11-20T01:53:17.374Z,99469.80
2018-11-20T01:59:24.349Z,99462.14
2018-11-20T02:02:31.946Z,99461.69
2018-11-20T02:05:16.252Z,99469.76
2018-11-20T02:08:27.234Z,99467.96
2018-11-20T02:11:17.405Z,99466.33
2018-11-20T02:14:27.706Z,99466.83
2018-11-20T02:17:41.160Z,99466.33
2018-11-20T02:20:34.512Z,99463.30
2018-11-20T02:23:26.552Z,99463.30
2018-11-20T02:26:35.616Z,99465.80
2018-11-20T02:29:25.484Z,99477.58
2018-11-20T02:32:14.962Z,99467.51
2018-11-20T02:37:53.080Z,99457.98
2018-11-20T02:40:49.697Z,99458.34
2018-11-20T02:46:56.958Z,99464.20
2018-11-20T02:50:04.310Z,99461.19
2018-11-20T02:53:11.877Z,99458.75
2018-11-20T02:56:22.623Z,99452.80
2018-11-20T03:02:11.397Z,99456.27
2018-11-20T03:10:57.691Z,99454.02
2018-11-20T03:14:05.437Z,99454.38
2018-11-20T03:20:06.419Z,99453.70
2018-11-20T03:22:47.902Z,99448.59
2018-11-20T03:29:24.333Z,99449.45
2018-11-20T03:32:14.761Z,99439.17
2018-11-20T03:44:16.802Z,99426.58
2018-11-20T03:47:29.377Z,99430.02
2018-11-20T03:53:43.349Z,99432.13
2018-11-20T04:02:55.930Z,99417.41
2018-11-20T04:09:08.414Z,99407.31
2018-11-20T04:14:59.922Z,99398.58
2018-11-20T04:18:07.516Z,99394.83
2018-11-20T04:20:59.044Z,99395.61
2018-11-20T04:24:11.187Z,99390.59
2018-11-20T04:27:03.138Z,99391.00
2018-11-20T04:30:38.978Z,99393.56
2018-11-20T04:40:09.055Z,99392.41
2018-11-20T04:43:10.456Z,99391.11
2018-11-20T04:58:29.595Z,99372.12
2018-11-20T05:01:52.694Z,99357.77
2018-11-20T05:04:51.474Z,99357.77
2018-11-20T05:07:59.122Z,99347.25
2018-11-20T05:10:50.067Z,99344.38
2018-11-20T05:16:46.421Z,99338.03
2018-11-20T05:22:37.886Z,99319.45
2018-11-20T05:25:27.184Z,99314.39
2018-11-20T05:32:20.633Z,99326.62
2018-11-20T05:35:10.460Z,99316.92
2018-11-20T05:37:45.784Z,99314.80
2018-11-20T05:43:52.113Z,99300.94
2018-11-20T05:46:44.520Z,99314.39
2018-11-20T05:49:35.549Z,99310.16
2018-11-20T05:55:22.986Z,99294.14
2018-11-20T05:58:11.543Z,99299.19
2018-11-20T06:01:21.981Z,99296.70
2018-11-20T06:04:10.574Z,99291.61
2018-11-20T06:06:52.539Z,99278.91
2018-11-20T06:09:51.873Z,99280.27
2018-11-20T06:12:59.423Z,99271.36
2018-11-20T06:15:48.680Z,99274.33
2018-11-20T06:18:57.087Z,99270.13
2018-11-20T06:22:03.778Z,99268.52
2018-11-20T06:25:14.197Z,99276.51
2018-11-20T06:34:00.869Z,99255.61
2018-11-20T06:37:04.404Z,99251.31
2018-11-20T06:45:53.836Z,99242.52
2018-11-20T06:48:46.435Z,99246.73
2018-11-20T06:54:40.458Z,99246.70
2018-11-20T07:09:53.797Z,99244.34
2018-11-20T07:15:55.043Z,99260.34
2018-11-20T07:19:06.800Z,99266.27
2018-11-20T07:28:22.807Z,99267.98
2018-11-20T07:34:23.981Z,99270.98
2018-11-20T07:40:34.959Z,99269.30
2018-11-20T07:43:25.334Z,99269.70
2018-11-20T07:49:21.979Z,99265.64
2018-11-20T07:52:09.576Z,99260.97
2018-11-20T07:54:59.157Z,99260.97
2018-11-20T07:58:05.717Z,99256.77
2018-11-20T08:06:56.334Z,99231.97
2018-11-20T08:09:44.686Z,99231.19
2018-11-20T08:12:47.351Z,99239.66
2018-11-20T08:16:16.775Z,99240.05
2018-11-20T08:19:04.968Z,99244.70
2018-11-20T08:21:54.183Z,99244.70
2018-11-20T08:27:55.363Z,99250.23
2018-11-20T08:33:47.086Z,99239.23
2018-11-20T08:49:10.931Z,99239.73
2018-11-20T08:58:57.922Z,99252.42
2018-11-20T09:02:06.169Z,99252.42
2018-11-20T09:11:36.961Z,99243.84
2018-11-20T09:14:27.520Z,99243.84
2018-11-20T09:21:13.806Z,99235.43
2018-11-20T09:27:11.653Z,99232.86
2018-11-20T09:30:00.579Z,99233.25
2018-11-20T09:39:03.846Z,99233.58
2018-11-20T09:42:04.891Z,99230.62
2018-11-20T09:48:19.217Z,99232.76
2018-11-20T09:57:56.317Z,99215.82
2018-11-20T10:00:44.896Z,99204.42
2018-11-20T10:03:35.867Z,99204.42
2018-11-20T10:12:50.867Z,99199.44
2018-11-20T10:15:59.116Z,99195.64
2018-11-20T10:28:12.087Z,99177.80
2018-11-20T10:34:01.143Z,99176.08
2018-11-20T10:46:12.124Z,99169.25
2018-11-20T10:48:54.712Z,99167.91
2018-11-20T10:51:54.273Z,99163.30
2018-11-20T10:58:00.830Z,99159.46
2018-11-20T11:01:09.030Z,99157.31
2018-11-20T11:06:56.415Z,99156.49
2018-11-20T11:13:02.448Z,99144.27
2018-11-20T11:22:00.441Z,99136.63
2018-11-20T11:24:49.742Z,99140.33
2018-11-20T11:30:56.060Z,99135.11
2018-11-20T11:34:07.937Z,99126.20
2018-11-20T11:37:16.277Z,99116.05
2018-11-20T11:40:22.996Z,99117.28
2018-11-20T11:46:07.059Z,99110.88
2018-11-20T11:51:50.072Z,99114.09
2018-11-20T11:54:58.479Z,99120.78
2018-11-20T11:58:28.571Z,99123.72
2018-11-20T12:04:18.726Z,99120.34
2018-11-20T12:07:07.225Z,99116.11
2018-11-20T12:10:14.591Z,99119.56
2018-11-20T12:13:03.328Z,99127.06
2018-11-20T12:19:11.069Z,99122.91
2018-11-20T12:22:18.110Z,99125.45
2018-11-20T12:28:24.086Z,99124.16
2018-11-20T12:31:32.303Z,99122.49
2018-11-20T12:37:44.834Z,99104.53
2018-11-20T12:40:33.506Z,99101.66
2018-11-20T12:46:42.962Z,99104.50
2018-11-20T12:49:51.969Z,99107.47
2018-11-20T12:58:49.199Z,99108.41
2018-11-20T13:04:55.385Z,99116.72
2018-11-20T13:11:07.646Z,99112.99
2018-11-20T13:31:58.503Z,99129.47
2018-11-20T13:38:19.036Z,99131.11
2018-11-20T13:45:04.337Z,99123.19
2018-11-20T13:53:58.752Z,99094.98
2018-11-20T13:56:47.619Z,99092.52
2018-11-20T14:00:01.408Z,99091.64
2018-11-20T14:14:42.245Z,99084.45
2018-11-20T14:17:49.166Z,99084.45
2018-11-20T14:20:57.492Z,99091.70
2018-11-20T14:24:05.768Z,99094.17
2018-11-20T14:29:47.121Z,99084.50
2018-11-20T14:32:55.327Z,99081.09
2018-11-20T14:36:04.135Z,99066.00
2018-11-20T14:38:56.528Z,99065.13
2018-11-20T14:47:46.559Z,99051.69
2018-11-20T14:50:35.175Z,99050.38
2018-11-20T14:53:43.446Z,99044.06
2018-11-20T14:56:51.830Z,99044.53
2018-11-20T14:59:40.842Z,99043.23
2018-11-20T15:02:43.698Z,99048.30
2018-11-20T15:05:48.036Z,99047.00
2018-11-20T15:08:55.032Z,99046.18
2018-11-20T15:11:49.530Z,99047.03
2018-11-20T15:14:36.337Z,99052.55
2018-11-20T15:17:32.781Z,99049.17
2018-11-20T15:20:37.474Z,99044.55
2018-11-20T15:23:30.772Z,99052.98
2018-11-20T15:26:10.078Z,99044.11
2018-11-20T15:29:01.142Z,99040.77
2018-11-20T15:32:05.089Z,99036.95
2018-11-20T15:34:57.951Z,99036.95
2018-11-20T15:37:50.891Z,99025.66
2018-11-20T15:40:30.368Z,99023.56
2018-11-20T15:43:24.841Z,99028.16
2018-11-20T15:46:19.768Z,99033.63
2018-11-20T15:49:13.792Z,99032.37
2018-11-20T15:51:58.336Z,99033.64
2018-11-20T15:55:03.737Z,99022.30
2018-11-20T15:58:04.210Z,99024.87
2018-11-20T16:00:56.025Z,99023.97
2018-11-20T16:03:43.857Z,99025.70
2018-11-20T16:06:31.673Z,99021.12
2018-11-20T16:09:30.758Z,99025.77
2018-11-20T16:12:17.940Z,99026.18
2018-11-20T16:15:10.940Z,99027.89
2018-11-20T16:17:55.260Z,99027.89
2018-11-20T16:20:54.047Z,99041.34
2018-11-20T16:23:49.393Z,99038.78
2018-11-20T16:26:38.012Z,99041.34
2018-11-20T16:29:27.531Z,99041.77
2018-11-20T16:32:21.548Z,99041.77
2018-11-20T16:35:09.222Z,99042.24
2018-11-20T16:37:59.413Z,99036.77
2018-11-20T16:40:37.891Z,99036.77
2018-11-20T16:43:28.028Z,99040.11
2018-11-20T16:46:17.607Z,99041.81
2018-11-20T16:49:11.514Z,99043.55
2018-11-20T16:52:12.306Z,99053.25
2018-11-20T16:54:59.040Z,99052.38
2018-11-20T16:57:48.281Z,99048.97
2018-11-20T17:00:37.468Z,99055.73
2018-11-20T17:03:20.431Z,99056.21
2018-11-20T17:06:05.038Z,99056.21
2018-11-20T17:08:52.263Z,99057.05
2018-11-20T17:11:43.445Z,99065.08
2018-11-20T17:14:43.537Z,99070.13
2018-11-20T17:17:42.380Z,99075.20
2018-11-20T17:20:32.056Z,99068.08
2018-11-20T17:23:27.585Z,99071.86
2018-11-20T17:26:11.415Z,99064.34
2018-11-20T17:29:10.590Z,99057.98
2018-11-20T17:31:58.861Z,99066.03
2018-11-20T17:34:59.455Z,99065.64
2018-11-20T17:37:46.977Z,99072.36
2018-11-20T17:40:36.034Z,99073.22
2018-11-20T17:43:23.168Z,99063.05
2018-11-20T17:46:09.901Z,99063.05
2018-11-20T17:49:05.201Z,99074.48
2018-11-20T17:51:54.065Z,99076.59
2018-11-20T17:54:55.603Z,99074.50
2018-11-20T17:57:34.801Z,99074.50
2018-11-20T18:00:26.418Z,99073.63
2018-11-20T18:03:27.610Z,99073.63
2018-11-20T18:06:07.307Z,99080.00
2018-11-20T18:09:00.508Z,99080.00
2018-11-20T18:11:47.500Z,99079.17
2018-11-20T18:14:35.103Z,99087.16
2018-11-20T18:17:22.216Z,99085.87
2018-11-20T18:20:20.603Z,99093.00
2018-11-20T18:23:20.075Z,99090.47
2018-11-20T18:25:57.263Z,99090.06
2018-11-20T18:28:54.762Z,99097.23
2018-11-20T18:31:42.339Z,99097.23
2018-11-20T18:34:44.092Z,99093.45
2018-11-20T18:37:28.170Z,99094.66
2018-11-20T18:40:16.249Z,99102.27
2018-11-20T18:43:15.627Z,99103.49
2018-11-20T18:46:15.542Z,99098.05
2018-11-20T18:49:05.840Z,99098.48
2018-11-20T18:51:48.028Z,99106.42
2018-11-20T18:54:49.610Z,99103.92
2018-11-20T18:57:40.717Z,99100.13
2018-11-20T19:00:37.251Z,99100.17
2018-11-20T19:03:27.240Z,99100.17
2018-11-20T19:06:18.708Z,99097.64
2018-11-20T19:09:26.074Z,99100.13
2018-11-20T19:12:13.362Z,99107.77
2018-11-20T19:15:18.216Z,99107.77
2018-11-20T19:18:15.873Z,99112.85
2018-11-20T19:21:03.280Z,99111.64
2018-11-20T19:23:57.896Z,99113.70
2018-11-20T19:26:37.065Z,99119.18
2018-11-20T19:29:24.570Z,99119.57
2018-11-20T19:32:18.605Z,99122.97
2018-11-20T19:35:06.610Z,99124.25
2018-11-20T19:37:54.323Z,99127.61
2018-11-20T19:40:50.788Z,99127.61
2018-11-20T19:43:42.761Z,99124.28
2018-11-20T19:46:42.009Z,99128.06
2018-11-20T19:49:40.363Z,99128.06
2018-11-20T19:52:19.646Z,99127.70
2018-11-20T19:55:20.710Z,99124.30
2018-11-20T19:58:19.138Z,99124.30
2018-11-20T20:01:13.297Z,99128.17
2018-11-20T20:04:04.338Z,99121.38
2018-11-20T20:06:51.944Z,99123.50
2018-11-20T20:09:42.955Z,99127.31
2018-11-20T20:12:20.814Z,99130.70
2018-11-20T20:15:13.062Z,99130.70
2018-11-20T20:18:05.767Z,99117.19
2018-11-20T20:20:52.708Z,99117.19
2018-11-20T20:23:40.608Z,99129.07
2018-11-20T20:26:37.784Z,99129.07
2018-11-20T20:29:40.504Z,99129.50
2018-11-20T20:32:38.126Z,99138.36
2018-11-20T20:35:33.207Z,99132.47
2018-11-20T20:38:37.738Z,99129.94
2018-11-20T20:41:26.315Z,99132.86
2018-11-20T20:44:21.380Z,99140.45
2018-11-20T20:47:08.651Z,99140.86
2018-11-20T20:49:53.416Z,99136.72
2018-11-20T20:52:33.334Z,99127.83
2018-11-20T20:55:23.231Z,99133.77
2018-11-20T20:58:20.463Z,99133.77
2018-11-20T21:01:18.147Z,99126.61
2018-11-20T21:04:13.876Z,99134.17
2018-11-20T21:07:04.508Z,99127.89
2018-11-20T21:09:53.486Z,99130.41
2018-11-20T21:12:41.999Z,99128.30
2018-11-20T21:15:33.923Z,99128.30
2018-11-20T21:18:20.882Z,99141.00
2018-11-20T21:21:15.614Z,99141.00
2018-11-20T21:23:59.510Z,99144.34
2018-11-20T21:26:45.654Z,99144.75
2018-11-20T21:29:48.496Z,99162.05
2018-11-20T21:32:46.485Z,99170.08
2018-11-20T21:35:26.262Z,99173.89
2018-11-20T21:38:14.823Z,99173.89
2018-11-20T21:41:01.790Z,99171.40
2018-11-20T21:44:06.498Z,99171.78
2018-11-20T21:46:49.311Z,99173.06
2018-11-20T21:49:38.587Z,99173.06
2018-11-20T21:52:26.252Z,99178.55
2018-11-20T21:55:27.898Z,99182.80
2018-11-20T21:58:27.355Z,99179.86
2018-11-20T22:01:27.329Z,99179.86
2018-11-20T22:04:37.037Z,99181.56
2018-11-20T22:07:24.643Z,99200.13
2018-11-20T22:10:17.077Z,99200.13
2018-11-20T22:13:17.887Z,99204.72
2018-11-20T22:16:27.035Z,99205.16
2018-11-20T22:19:21.728Z,99214.06
2018-11-20T22:22:09.080Z,99214.06
2018-11-20T22:25:02.625Z,99216.58
2018-11-20T22:27:59.523Z,99226.31
2018-11-20T22:30:47.068Z,99226.31
2018-11-20T22:33:42.406Z,99225.46
2018-11-20T22:36:35.204Z,99227.15
2018-11-20T22:39:27.944Z,99227.15
2018-11-20T22:42:18.914Z,99230.92
2018-11-20T22:45:10.556Z,99227.12
2018-11-20T22:48:08.120Z,99228.40
2018-11-20T22:50:56.639Z,99238.94
2018-11-20T22:53:51.429Z,99238.94
2018-11-20T22:56:44.582Z,99233.03
2018-11-20T22:59:30.051Z,99237.27
2018-11-20T23:02:21.500Z,99237.27
2018-11-20T23:05:24.766Z,99221.20
2018-11-20T23:07:57.695Z,99230.90
2018-11-20T23:10:29.582Z,99230.90
2018-11-20T23:12:59.875Z,99244.37
2018-11-20T23:15:31.093Z,99235.06
2018-11-20T23:18:00.924Z,99233.40
2018-11-20T23:20:32.035Z,99235.06
2018-11-20T23:23:03.029Z,99240.13
2018-11-20T23:25:34.154Z,99237.57
2018-11-20T23:28:04.096Z,99234.61
2018-11-20T23:30:35.141Z,99236.31
2018-11-20T23:33:05.018Z,99232.89
2018-11-20T23:35:36.159Z,99232.89
2018-11-20T23:38:06.197Z,99230.37
2018-11-20T23:40:36.954Z,99232.04
2018-11-20T23:43:07.120Z,99232.04
2018-11-20T23:45:37.044Z,99236.25
2018-11-20T23:48:08.097Z,99234.19
2018-11-20T23:50:37.563Z,99238.45
2018-11-20T23:53:09.161Z,99232.09
2018-11-20T23:55:40.104Z,99242.22
2018-11-20T23:58:10.110Z,99232.91
